Time;durP1;ratioP1;P1;durP2;ratioP2;P2;SDS_P1;SDS_P2;PMS_P1;PMS_P2;Temp;Humidity;BMP_temperature;BMP_pressure;BME280_temperature;BME280_humidity;BME280_pressure;Samples;Min_cycle;Max_cycle;Signal;HPM_P1;HPM_P2
2023/08/24 00:00:59;;;;;;;9.63;8.80;;;25.10;60.10;;;;;;5053260;28;20044;-35
2023/08/24 00:03:26;;;;;;;10.25;9.35;;;25.00;60.60;;;;;;5051793;28;20077;-35
2023/08/24 00:05:52;;;;;;;9.82;8.95;;;25.00;60.90;;;;;;5051832;28;20032;-35
2023/08/24 00:08:18;;;;;;;9.38;8.57;;;25.00;61.00;;;;;;5052941;28;20044;-35
2023/08/24 00:10:47;;;;;;;9.85;9.05;;;25.00;60.80;;;;;;5051836;28;20041;-35
2023/08/24 00:13:14;;;;;;;9.80;9.00;;;25.00;60.90;;;;;;5033673;28;20036;-36
2023/08/24 00:15:40;;;;;;;9.70;8.90;;;24.90;60.60;;;;;;5047451;28;20033;-35
2023/08/24 00:18:06;;;;;;;9.00;8.20;;;24.90;60.60;;;;;;5050798;28;20553;-35
2023/08/24 00:20:33;;;;;;;9.32;8.52;;;24.90;60.30;;;;;;5051351;28;20040;-35
2023/08/24 00:23:00;;;;;;;9.55;8.70;;;24.90;60.10;;;;;;5035193;28;20072;-35
2023/08/24 00:25:26;;;;;;;9.48;8.68;;;24.90;60.00;;;;;;5046232;28;20044;-34
2023/08/24 00:27:53;;;;;;;9.15;8.35;;;24.80;60.00;;;;;;5049003;28;20029;-36
2023/08/24 00:30:19;;;;;;;9.20;8.43;;;24.80;59.90;;;;;;5055200;28;20036;-35
2023/08/24 00:32:45;;;;;;;9.45;8.65;;;24.80;59.90;;;;;;5052800;28;20112;-35
2023/08/24 00:35:12;;;;;;;9.80;9.00;;;24.80;59.90;;;;;;5046855;28;20073;-36
2023/08/24 00:37:38;;;;;;;9.57;8.77;;;24.80;60.60;;;;;;5047897;28;20048;-35
2023/08/24 00:40:09;;;;;;;9.93;9.02;;;24.70;60.60;;;;;;5053903;28;20052;-35
2023/08/24 00:42:42;;;;;;;10.15;9.25;;;24.70;60.80;;;;;;5050922;28;20107;-35
2023/08/24 00:45:09;;;;;;;10.07;9.18;;;24.70;60.60;;;;;;5051360;28;20045;-35
2023/08/24 00:47:35;;;;;;;;;;;24.70;60.80;;;;;;5037820;28;20028;-35
2023/08/24 00:50:03;;;;;;;9.95;9.15;;;24.70;61.50;;;;;;5061766;28;19912;-35
2023/08/24 00:52:31;;;;;;;10.65;9.75;;;24.60;60.90;;;;;;5037302;28;20040;-35
2023/08/24 00:55:00;;;;;;;10.82;9.93;;;24.60;61.00;;;;;;5040177;28;20727;-34
2023/08/24 00:57:29;;;;;;;10.48;9.57;;;24.60;61.20;;;;;;5033512;28;20740;-35
2023/08/24 00:59:56;;;;;;;10.52;9.63;;;24.60;61.10;;;;;;5057889;28;20033;-34
2023/08/24 01:02:22;;;;;;;10.90;10.00;;;24.60;61.10;;;;;;5029553;28;20482;-35
2023/08/24 01:04:49;;;;;;;11.43;10.32;;;24.50;61.20;;;;;;5043872;28;20128;-35
2023/08/24 01:07:15;;;;;;;11.05;10.10;;;24.50;61.20;;;;;;5048630;28;20029;-34
2023/08/24 01:09:42;;;;;;;10.77;9.75;;;24.50;61.30;;;;;;5058191;28;20029;-35
2023/08/24 01:12:38;;;;;;;10.57;9.67;;;24.50;61.30;;;;;;5037760;28;20419;-34
2023/08/24 01:15:23;;;;;;;10.70;9.80;;;24.50;60.50;;;;;;5050933;28;20045;-35
2023/08/24 01:17:49;;;;;;;9.95;9.05;;;24.40;60.60;;;;;;5034651;28;20025;-34
2023/08/24 01:20:15;;;;;;;11.10;10.10;;;24.40;60.90;;;;;;5055184;28;20108;-35
2023/08/24 01:23:01;;;;;;;10.35;9.45;;;24.40;61.30;;;;;;5048832;28;20693;-35
2023/08/24 01:25:42;;;;;;;10.55;9.63;;;24.40;60.50;;;;;;5060412;28;20055;-34
2023/08/24 01:28:08;;;;;;;10.60;9.70;;;24.30;60.50;;;;;;5038097;28;20048;-34
2023/08/24 01:30:35;;;;;;;11.00;10.00;;;24.30;60.80;;;;;;5050992;28;20032;-35
2023/08/24 01:33:04;;;;;;;11.23;10.23;;;24.30;61.00;;;;;;5055064;28;20017;-35
2023/08/24 01:35:31;;;;;;;11.23;10.23;;;24.30;61.00;;;;;;5037504;28;20045;-35
2023/08/24 01:38:02;;;;;;;11.45;10.45;;;24.30;60.90;;;;;;5057761;28;20025;-34
2023/08/24 01:40:43;;;;;;;10.82;9.93;;;24.20;60.80;;;;;;5057447;28;20087;-35
2023/08/24 01:43:10;;;;;;;10.88;9.93;;;24.20;60.50;;;;;;5057690;28;20061;-34
2023/08/24 01:45:36;;;;;;;10.98;10.07;;;24.20;60.60;;;;;;5056343;28;20034;-34
2023/08/24 01:48:03;;;;;;;10.82;9.93;;;24.20;60.30;;;;;;5060123;28;20092;-34
2023/08/24 01:50:30;;;;;;;10.85;9.95;;;24.10;60.40;;;;;;5055495;28;20059;-34
2023/08/24 01:52:56;;;;;;;12.20;11.10;;;24.10;60.40;;;;;;5030170;28;20045;-34
2023/08/24 01:55:22;;;;;;;11.03;10.13;;;24.10;60.30;;;;;;5050557;28;20037;-34
2023/08/24 01:57:49;;;;;;;12.03;10.93;;;24.10;61.90;;;;;;5042845;28;20048;-34
2023/08/24 02:00:15;;;;;;;12.27;11.18;;;24.10;63.00;;;;;;5063275;28;20029;-34
2023/08/24 02:02:44;;;;;;;11.95;10.95;;;24.10;63.30;;;;;;5055961;28;20052;-34
2023/08/24 02:05:10;;;;;;;12.48;11.38;;;24.00;63.40;;;;;;5057827;28;20556;-34
2023/08/24 02:07:38;;;;;;;12.00;10.90;;;24.00;63.50;;;;;;5063004;28;20055;-34
2023/08/24 02:10:04;;;;;;;11.15;10.18;;;24.00;63.70;;;;;;5061958;28;20021;-35
2023/08/24 02:12:31;;;;;;;11.82;10.82;;;24.00;64.00;;;;;;5060257;28;20021;-35
2023/08/24 02:14:57;;;;;;;12.23;11.10;;;24.10;64.20;;;;;;5060013;28;20109;-35
2023/08/24 02:17:23;;;;;;;11.98;10.90;;;24.10;64.50;;;;;;5053588;28;20022;-35
2023/08/24 02:19:50;;;;;;;12.68;11.57;;;24.10;64.60;;;;;;5056486;28;20029;-35
2023/08/24 02:22:16;;;;;;;11.55;10.52;;;24.10;64.70;;;;;;5052706;28;20033;-35
2023/08/24 02:24:42;;;;;;;10.95;10.02;;;24.10;65.00;;;;;;5062675;28;20029;-35
2023/08/24 02:27:08;;;;;;;11.83;10.73;;;24.10;65.30;;;;;;5033691;28;20030;-34
2023/08/24 02:29:35;;;;;;;12.93;11.73;;;24.10;65.30;;;;;;5051425;28;20037;-35
2023/08/24 02:32:01;;;;;;;12.27;11.18;;;24.10;65.70;;;;;;5055513;28;20032;-34
2023/08/24 02:34:27;;;;;;;12.00;10.90;;;24.10;66.60;;;;;;5053431;28;20650;-34
2023/08/24 02:36:53;;;;;;;12.38;11.27;;;24.10;66.10;;;;;;5056318;28;20337;-35
2023/08/24 02:39:19;;;;;;;11.60;10.60;;;24.10;66.30;;;;;;5056317;28;20029;-35
2023/08/24 02:41:46;;;;;;;12.30;11.20;;;24.10;66.40;;;;;;5051759;28;20033;-34
2023/08/24 02:44:12;;;;;;;11.70;10.70;;;24.20;66.50;;;;;;5063600;28;20035;-35
2023/08/24 02:46:38;;;;;;;12.35;11.25;;;24.20;66.60;;;;;;5057306;28;20140;-35
2023/08/24 02:49:04;;;;;;;12.70;11.40;;;24.20;66.70;;;;;;5056629;28;20036;-35
2023/08/24 02:51:32;;;;;;;12.13;11.02;;;24.20;66.90;;;;;;5054623;28;20432;-35
2023/08/24 02:53:58;;;;;;;12.85;11.73;;;24.30;67.10;;;;;;5052698;28;20029;-35
2023/08/24 02:56:24;;;;;;;11.60;10.60;;;24.30;67.30;;;;;;5053264;28;20033;-35
2023/08/24 02:58:50;;;;;;;11.82;10.73;;;24.30;67.30;;;;;;5035840;28;20025;-35
2023/08/24 03:01:16;;;;;;;12.55;11.35;;;24.30;67.50;;;;;;5058991;28;20051;-36
2023/08/24 03:03:42;;;;;;;12.25;11.15;;;24.30;67.80;;;;;;5061551;28;20025;-35
2023/08/24 03:06:09;;;;;;;12.52;11.43;;;24.30;67.80;;;;;;5057508;28;20059;-35
2023/08/24 03:08:35;;;;;;;12.50;11.40;;;24.30;67.70;;;;;;5054579;28;20040;-35
2023/08/24 03:11:02;;;;;;;12.40;11.30;;;24.30;67.70;;;;;;5053329;28;20029;-35
2023/08/24 03:13:29;;;;;;;13.45;12.25;;;24.40;67.90;;;;;;5038370;28;20036;-35
2023/08/24 03:15:55;;;;;;;11.82;10.82;;;24.40;67.80;;;;;;5062228;28;20032;-35
2023/08/24 03:18:21;;;;;;;12.17;11.07;;;24.40;67.80;;;;;;5062959;28;20029;-34
2023/08/24 03:20:48;;;;;;;12.23;11.13;;;24.40;67.90;;;;;;5056355;28;20036;-35
2023/08/24 03:23:14;;;;;;;12.48;11.38;;;24.40;67.90;;;;;;5061315;28;20025;-34
2023/08/24 03:25:41;;;;;;;12.02;11.02;;;24.40;67.80;;;;;;5061325;28;20083;-35
2023/08/24 03:28:08;;;;;;;12.18;11.07;;;24.50;68.00;;;;;;5054079;28;20025;-34
2023/08/24 03:30:38;;;;;;;11.55;10.48;;;24.50;68.00;;;;;;5047951;28;20032;-36
2023/08/24 03:33:05;;;;;;;12.25;11.20;;;24.50;68.00;;;;;;5059334;28;20133;-35
2023/08/24 03:35:31;;;;;;;11.95;10.85;;;24.50;68.00;;;;;;5061450;28;20523;-35
2023/08/24 03:37:58;;;;;;;13.15;11.95;;;24.50;68.00;;;;;;5062540;28;20112;-35
2023/08/24 03:40:24;;;;;;;12.83;11.70;;;24.50;68.00;;;;;;5058844;28;20025;-35
2023/08/24 03:42:50;;;;;;;11.57;10.57;;;24.50;68.00;;;;;;5055185;28;20305;-35
2023/08/24 03:45:17;;;;;;;12.40;11.30;;;24.50;68.10;;;;;;5056084;28;20032;-34
2023/08/24 03:47:43;;;;;;;12.57;11.48;;;24.50;68.10;;;;;;5052459;28;20129;-34
2023/08/24 03:50:09;;;;;;;12.07;10.98;;;24.50;68.20;;;;;;5057189;28;20043;-35
2023/08/24 03:52:35;;;;;;;12.05;10.95;;;24.50;68.20;;;;;;5057714;28;20036;-35
2023/08/24 03:55:01;;;;;;;12.90;11.73;;;24.60;68.30;;;;;;5051846;28;20037;-35
2023/08/24 03:57:27;;;;;;;11.73;10.68;;;24.60;68.40;;;;;;5051866;28;20040;-35
2023/08/24 03:59:54;;;;;;;11.73;10.73;;;24.60;68.50;;;;;;5056232;28;20497;-35
2023/08/24 04:02:20;;;;;;;12.07;10.97;;;24.60;68.60;;;;;;5054212;28;20028;-34
2023/08/24 04:04:46;;;;;;;12.60;11.50;;;24.60;68.40;;;;;;5055088;28;20021;-35
2023/08/24 04:07:12;;;;;;;12.32;11.25;;;24.60;68.40;;;;;;5057083;28;20121;-35
2023/08/24 04:09:39;;;;;;;12.07;10.97;;;24.60;68.40;;;;;;5053120;28;20048;-35
2023/08/24 04:12:05;;;;;;;11.95;10.95;;;24.60;68.40;;;;;;5052809;28;20031;-34
2023/08/24 04:14:32;;;;;;;12.40;11.23;;;24.60;68.40;;;;;;5061695;28;20100;-35
2023/08/24 04:16:58;;;;;;;11.98;10.98;;;24.60;68.40;;;;;;5059352;28;20029;-35
2023/08/24 04:19:24;;;;;;;11.77;10.70;;;24.60;68.30;;;;;;5061920;28;20048;-37
2023/08/24 04:21:50;;;;;;;12.63;11.53;;;24.60;68.40;;;;;;5043172;28;20032;-35
2023/08/24 04:24:16;;;;;;;11.97;10.97;;;24.60;68.40;;;;;;5043924;28;20112;-34
2023/08/24 04:26:42;;;;;;;12.40;11.27;;;24.60;68.40;;;;;;5059968;28;20397;-35
2023/08/24 04:29:08;;;;;;;12.07;10.98;;;24.70;68.60;;;;;;5061337;28;20033;-35
2023/08/24 04:31:36;;;;;;;11.88;10.85;;;24.70;68.70;;;;;;5042296;28;20096;-35
2023/08/24 04:34:03;;;;;;;12.43;11.32;;;24.70;68.90;;;;;;5056549;28;20057;-34
2023/08/24 04:36:29;;;;;;;;;;;24.60;68.80;;;;;;5058631;28;20108;-35
2023/08/24 04:38:55;;;;;;;11.70;10.70;;;24.70;68.90;;;;;;5056766;28;19956;-34
2023/08/24 04:41:21;;;;;;;11.80;10.80;;;24.70;70.00;;;;;;5055501;28;20397;-35
2023/08/24 04:43:48;;;;;;;11.48;10.50;;;24.70;69.20;;;;;;5058417;28;20025;-35
2023/08/24 04:46:14;;;;;;;12.60;11.50;;;24.70;68.90;;;;;;5050967;28;20029;-34
2023/08/24 04:48:40;;;;;;;11.90;10.90;;;24.70;68.80;;;;;;5059867;28;20033;-35
2023/08/24 04:51:06;;;;;;;11.73;10.73;;;24.70;68.70;;;;;;5060341;28;20033;-35
2023/08/24 04:53:32;;;;;;;11.80;10.70;;;24.70;68.80;;;;;;5053659;28;20025;-35
2023/08/24 04:55:58;;;;;;;12.48;11.27;;;24.70;68.80;;;;;;5032876;28;20060;-35
2023/08/24 04:58:25;;;;;;;11.57;10.57;;;24.70;68.70;;;;;;5050625;28;20033;-34
2023/08/24 05:00:51;;;;;;;12.43;11.23;;;24.70;68.80;;;;;;5057226;28;20025;-35
2023/08/24 05:03:17;;;;;;;11.50;10.50;;;24.70;69.00;;;;;;5056555;28;20035;-35
2023/08/24 05:05:44;;;;;;;12.05;10.95;;;24.70;69.00;;;;;;5059974;28;20127;-34
2023/08/24 05:08:10;;;;;;;11.88;10.88;;;24.70;69.10;;;;;;5060374;28;20025;-35
2023/08/24 05:10:36;;;;;;;11.68;10.57;;;24.70;69.30;;;;;;5054995;28;20044;-35
2023/08/24 05:13:03;;;;;;;11.97;10.77;;;24.80;69.40;;;;;;5042834;28;20386;-34
2023/08/24 05:15:29;;;;;;;12.18;11.07;;;24.70;69.20;;;;;;5055697;28;20442;-35
2023/08/24 05:17:59;;;;;;;12.00;10.88;;;24.80;69.30;;;;;;5052995;28;20040;-35
2023/08/24 05:20:26;;;;;;;11.32;10.32;;;24.80;69.30;;;;;;5047501;28;20033;-34
2023/08/24 05:22:54;;;;;;;11.93;10.90;;;24.80;69.20;;;;;;5046964;28;20140;-35
2023/08/24 05:25:22;;;;;;;12.27;11.18;;;24.80;69.20;;;;;;5054447;28;20044;-35
2023/08/24 05:27:48;;;;;;;11.77;10.77;;;24.80;69.20;;;;;;5044761;28;20025;-35
2023/08/24 05:30:14;;;;;;;11.47;10.47;;;24.80;69.00;;;;;;5046103;28;20492;-34
2023/08/24 05:32:41;;;;;;;11.97;10.87;;;24.80;69.10;;;;;;5045049;28;20034;-35
2023/08/24 05:35:07;;;;;;;12.65;11.45;;;24.80;69.10;;;;;;5047204;28;20076;-35
2023/08/24 05:37:34;;;;;;;11.57;10.50;;;24.80;69.20;;;;;;5035811;28;20024;-35
2023/08/24 05:40:01;;;;;;;12.10;11.05;;;24.80;69.30;;;;;;5043582;28;20105;-34
2023/08/24 05:42:27;;;;;;;11.68;10.68;;;24.80;69.80;;;;;;5046178;28;20030;-35
2023/08/24 05:44:53;;;;;;;11.73;10.73;;;24.80;69.30;;;;;;5033662;28;20030;-35
2023/08/24 05:47:19;;;;;;;11.60;10.60;;;24.80;69.40;;;;;;5025333;28;20066;-35
2023/08/24 05:49:46;;;;;;;11.43;10.43;;;24.80;69.40;;;;;;5053311;28;20135;-34
2023/08/24 05:52:12;;;;;;;11.20;10.30;;;24.80;69.40;;;;;;5055132;28;20029;-35
2023/08/24 05:54:38;;;;;;;11.73;10.73;;;24.80;69.50;;;;;;5059993;28;20052;-34
2023/08/24 05:57:05;;;;;;;11.40;10.50;;;24.80;69.50;;;;;;5050324;28;20029;-35
2023/08/24 05:59:33;;;;;;;11.13;10.13;;;24.80;69.40;;;;;;5050489;28;20029;-35
2023/08/24 06:01:59;;;;;;;11.18;10.18;;;24.80;69.50;;;;;;5053329;28;20025;-35
2023/08/24 06:04:45;;;;;;;12.07;10.90;;;24.80;69.60;;;;;;5059977;28;20041;-34
2023/08/24 06:07:11;;;;;;;11.77;10.77;;;24.80;69.60;;;;;;5001337;28;20031;-34
2023/08/24 06:09:38;;;;;;;11.13;10.20;;;24.80;69.60;;;;;;5002651;28;20088;-34
2023/08/24 06:12:04;;;;;;;11.73;10.73;;;24.80;69.70;;;;;;5002960;28;20169;-35
2023/08/24 06:14:30;;;;;;;11.18;10.27;;;24.80;69.80;;;;;;5003514;28;20046;-34
2023/08/24 06:16:57;;;;;;;10.85;9.93;;;24.80;69.80;;;;;;5002180;28;20041;-34
2023/08/24 06:19:23;;;;;;;12.07;10.80;;;24.90;70.00;;;;;;5002839;28;20065;-35
2023/08/24 06:21:49;;;;;;;11.27;10.27;;;24.90;69.90;;;;;;5002419;28;20347;-35
2023/08/24 06:24:15;;;;;;;11.63;10.63;;;24.90;69.90;;;;;;5002988;28;20042;-34
2023/08/24 06:26:41;;;;;;;11.38;10.38;;;24.80;69.80;;;;;;5002364;28;20046;-35
2023/08/24 06:29:08;;;;;;;11.65;10.65;;;24.90;69.90;;;;;;5002509;28;20034;-35
2023/08/24 06:31:34;;;;;;;11.13;10.17;;;24.90;69.90;;;;;;5002029;28;21115;-34
2023/08/24 06:34:00;;;;;;;11.48;10.48;;;24.90;70.00;;;;;;5002285;28;20113;-35
2023/08/24 06:36:26;;;;;;;10.67;9.77;;;24.90;70.10;;;;;;5002668;28;20126;-34
2023/08/24 06:38:52;;;;;;;11.07;10.18;;;24.90;70.10;;;;;;5002409;28;20042;-35
2023/08/24 06:41:20;;;;;;;10.93;9.93;;;24.90;70.20;;;;;;5002404;28;20041;-35
2023/08/24 06:43:46;;;;;;;10.82;9.82;;;24.90;70.10;;;;;;5015473;28;20728;-34
2023/08/24 06:46:12;;;;;;;11.13;10.15;;;24.90;70.10;;;;;;5053464;28;20044;-35
2023/08/24 06:48:39;;;;;;;11.65;10.57;;;24.80;70.10;;;;;;5047326;28;20473;-35
2023/08/24 06:51:05;;;;;;;11.32;10.32;;;24.90;70.20;;;;;;5059731;28;20029;-35
2023/08/24 06:53:31;;;;;;;11.00;10.00;;;24.90;70.30;;;;;;5062658;28;20020;-35
2023/08/24 06:55:58;;;;;;;11.45;10.45;;;24.80;70.30;;;;;;5054092;28;20067;-34
2023/08/24 06:58:24;;;;;;;10.70;9.73;;;24.90;70.40;;;;;;5053688;28;20021;-35
2023/08/24 07:00:54;;;;;;;10.60;9.70;;;24.90;70.30;;;;;;5054212;28;20029;-34
2023/08/24 07:03:21;;;;;;;10.85;9.95;;;24.90;70.40;;;;;;5056429;28;20343;-35
2023/08/24 07:05:47;;;;;;;10.75;9.85;;;24.90;70.30;;;;;;5055112;28;20063;-35
2023/08/24 07:08:13;;;;;;;11.15;10.15;;;24.90;70.30;;;;;;5051521;28;20029;-35
2023/08/24 07:10:40;;;;;;;11.82;10.82;;;24.90;70.30;;;;;;5062404;28;20060;-34
2023/08/24 07:13:07;;;;;;;11.27;10.27;;;24.80;70.30;;;;;;5054174;28;20290;-35
2023/08/24 07:15:34;;;;;;;11.40;10.40;;;24.90;70.40;;;;;;5055498;28;20025;-34
2023/08/24 07:18:05;;;;;;;;;;;24.90;70.30;;;;;;5055899;28;20048;-34
2023/08/24 07:20:33;;;;;;;11.38;10.38;;;24.80;70.40;;;;;;5062680;28;19976;-35
2023/08/24 07:22:59;;;;;;;10.75;9.77;;;24.80;70.40;;;;;;5056924;28;20021;-34
2023/08/24 07:25:26;;;;;;;10.70;9.70;;;24.90;70.60;;;;;;5062883;28;20017;-34
2023/08/24 07:27:57;;;;;;;10.52;9.63;;;24.90;70.70;;;;;;5061888;28;20055;-35
2023/08/24 07:30:25;;;;;;;11.23;10.32;;;24.90;70.70;;;;;;5056469;28;20179;-34
2023/08/24 07:32:50;;;;;;;;;;;24.90;70.60;;;;;;5054329;28;20025;-34
2023/08/24 07:35:17;;;;;;;10.98;9.88;;;24.90;70.70;;;;;;5045743;28;19959;-34
2023/08/24 07:37:43;;;;;;;10.83;9.93;;;24.90;70.70;;;;;;5053229;28;20033;-34
2023/08/24 07:40:10;;;;;;;11.50;10.50;;;24.90;70.80;;;;;;5052708;28;20033;-34
2023/08/24 07:42:50;;;;;;;11.00;10.10;;;24.90;70.80;;;;;;5059626;28;20025;-34
2023/08/24 07:45:17;;;;;;;10.63;9.73;;;24.90;70.70;;;;;;5059342;28;20072;-34
2023/08/24 07:47:43;;;;;;;11.35;10.35;;;24.90;70.80;;;;;;5053844;28;20029;-34
2023/08/24 07:50:10;;;;;;;10.80;9.88;;;24.90;70.80;;;;;;5054658;28;20041;-34
2023/08/24 07:52:39;;;;;;;11.25;10.15;;;24.90;70.80;;;;;;5053029;28;20028;-34
2023/08/24 07:55:06;;;;;;;11.38;10.38;;;24.80;70.80;;;;;;5054671;28;20120;-35
2023/08/24 07:57:34;;;;;;;10.52;9.63;;;24.80;70.80;;;;;;5039047;28;20089;-35
2023/08/24 08:00:00;;;;;;;10.50;9.60;;;24.80;70.90;;;;;;5054001;28;20029;-35
2023/08/24 08:02:26;;;;;;;11.13;10.13;;;24.80;70.90;;;;;;5050403;28;20032;-34
2023/08/24 08:04:59;;;;;;;10.60;9.70;;;24.80;71.00;;;;;;5062246;28;20025;-34
2023/08/24 08:07:28;;;;;;;10.85;9.85;;;24.80;70.90;;;;;;5055820;28;20029;-35
2023/08/24 08:09:54;;;;;;;10.68;9.77;;;24.80;71.00;;;;;;5059245;28;20031;-34
2023/08/24 08:12:20;;;;;;;9.88;9.02;;;24.80;71.00;;;;;;5062239;28;20025;-34
2023/08/24 08:14:47;;;;;;;11.57;10.60;;;24.80;71.10;;;;;;5062605;28;20052;-35
2023/08/24 08:17:13;;;;;;;11.27;10.27;;;24.80;71.10;;;;;;5062463;28;20029;-35
2023/08/24 08:19:39;;;;;;;10.63;9.73;;;24.80;71.10;;;;;;5061501;28;20037;-35
2023/08/24 08:22:05;;;;;;;11.63;10.63;;;24.90;71.30;;;;;;5057544;28;20025;-35
2023/08/24 08:24:31;;;;;;;11.50;10.50;;;24.80;71.10;;;;;;5054860;28;20029;-34
2023/08/24 08:26:58;;;;;;;11.07;10.07;;;24.80;71.10;;;;;;5062712;28;20040;-35
2023/08/24 08:29:24;;;;;;;10.13;9.30;;;24.80;71.20;;;;;;5055099;28;20032;-34
2023/08/24 08:31:50;;;;;;;11.23;10.23;;;24.80;71.20;;;;;;5054529;28;20033;-34
2023/08/24 08:34:17;;;;;;;11.50;10.50;;;24.80;71.20;;;;;;5061378;28;20037;-35
2023/08/24 08:36:43;;;;;;;11.10;10.10;;;24.80;71.20;;;;;;5060134;28;20092;-35
2023/08/24 08:39:09;;;;;;;10.97;9.97;;;24.80;71.30;;;;;;5056530;28;20040;-35
2023/08/24 08:41:42;;;;;;;10.53;9.63;;;24.80;71.30;;;;;;5035444;28;20116;-34
2023/08/24 08:44:08;;;;;;;10.65;9.75;;;24.80;71.30;;;;;;5051492;28;20025;-35
2023/08/24 08:46:34;;;;;;;10.35;9.45;;;24.80;71.40;;;;;;5015918;28;20482;-35
2023/08/24 08:49:03;;;;;;;10.80;9.88;;;24.80;71.40;;;;;;5050947;28;20033;-34
2023/08/24 08:51:29;;;;;;;11.25;10.25;;;24.80;71.40;;;;;;5060359;28;20079;-34
2023/08/24 08:53:55;;;;;;;11.93;10.93;;;24.80;71.50;;;;;;5033257;28;20037;-35
2023/08/24 08:56:22;;;;;;;11.00;10.10;;;24.80;71.50;;;;;;5051128;28;20050;-34
2023/08/24 08:58:48;;;;;;;10.52;9.52;;;24.80;71.50;;;;;;5052569;28;20071;-34
2023/08/24 09:01:14;;;;;;;10.77;9.82;;;24.80;71.60;;;;;;5061345;28;20044;-35
2023/08/24 09:03:40;;;;;;;11.05;10.05;;;24.80;71.60;;;;;;5028184;28;20047;-34
2023/08/24 09:06:07;;;;;;;11.00;10.10;;;24.80;71.70;;;;;;5029281;28;20026;-34
2023/08/24 09:08:33;;;;;;;11.20;10.23;;;24.80;71.70;;;;;;5052644;28;20052;-34
2023/08/24 09:10:59;;;;;;;10.77;9.82;;;24.80;71.70;;;;;;5054776;28;20504;-35
2023/08/24 09:13:26;;;;;;;11.18;10.18;;;24.80;71.70;;;;;;5047247;28;20036;-34
2023/08/24 09:15:53;;;;;;;10.98;9.95;;;24.80;71.80;;;;;;5049594;28;20045;-34
2023/08/24 09:18:19;;;;;;;;;;;24.80;71.70;;;;;;5051707;28;20040;-34
2023/08/24 09:20:47;;;;;;;11.23;10.23;;;24.80;71.70;;;;;;5052637;28;19920;-34
2023/08/24 09:23:22;;;;;;;10.75;9.85;;;24.80;71.70;;;;;;5061482;28;20048;-35
2023/08/24 09:25:49;;;;;;;10.65;9.65;;;24.80;71.80;;;;;;5058668;28;20052;-35
2023/08/24 09:28:22;;;;;;;10.90;9.90;;;24.80;71.80;;;;;;5047118;28;20108;-34
2023/08/24 09:30:49;;;;;;;10.65;9.75;;;24.80;71.80;;;;;;5043349;28;20116;-34
2023/08/24 09:33:15;;;;;;;11.07;10.07;;;24.80;71.90;;;;;;5041700;28;20036;-34
2023/08/24 09:35:41;;;;;;;11.05;10.15;;;24.80;71.90;;;;;;5047866;28;20049;-35
2023/08/24 09:38:21;;;;;;;9.98;9.18;;;24.80;71.90;;;;;;5043731;28;20076;-35
2023/08/24 09:40:51;;;;;;;11.30;10.30;;;24.80;72.00;;;;;;5042683;28;20389;-35
2023/08/24 09:43:17;;;;;;;11.48;10.48;;;24.80;72.10;;;;;;5051616;28;20025;-34
2023/08/24 09:45:55;;;;;;;10.63;9.73;;;24.80;72.00;;;;;;5059632;28;20557;-34
2023/08/24 09:48:22;;;;;;;10.77;9.77;;;24.80;72.10;;;;;;5057102;28;20028;-34
2023/08/24 09:50:50;;;;;;;11.48;10.48;;;24.80;72.10;;;;;;5056629;28;20025;-34
2023/08/24 09:53:18;;;;;;;10.77;9.77;;;24.80;72.10;;;;;;5046550;28;20021;-35
2023/08/24 09:55:49;;;;;;;11.07;10.07;;;24.70;72.10;;;;;;5063209;28;20041;-34
2023/08/24 09:58:16;;;;;;;11.45;10.35;;;24.70;72.10;;;;;;5022880;28;20091;-34
2023/08/24 10:00:43;;;;;;;10.85;9.95;;;24.70;72.00;;;;;;5039233;28;20037;-34
2023/08/24 10:03:09;;;;;;;11.27;10.27;;;24.70;72.10;;;;;;5029933;28;20036;-34
2023/08/24 10:05:35;;;;;;;10.55;9.65;;;24.70;72.10;;;;;;5038839;28;20030;-35
2023/08/24 10:08:02;;;;;;;11.30;10.30;;;24.70;72.10;;;;;;5057691;28;20088;-34
2023/08/24 10:10:28;;;;;;;10.93;9.93;;;24.70;72.10;;;;;;5050141;28;20037;-35
2023/08/24 10:13:05;;;;;;;10.73;9.80;;;24.70;72.20;;;;;;5043268;28;20048;-34
2023/08/24 10:15:32;;;;;;;10.35;9.45;;;24.70;72.20;;;;;;5040452;28;20090;-35
2023/08/24 10:17:58;;;;;;;10.40;9.50;;;24.70;72.30;;;;;;5033172;28;20025;-35
2023/08/24 10:20:24;;;;;;;10.68;9.77;;;24.70;72.30;;;;;;5058907;28;20032;-34
2023/08/24 10:22:50;;;;;;;10.93;9.93;;;24.70;72.40;;;;;;5043385;28;20033;-34
2023/08/24 10:25:19;;;;;;;10.20;9.38;;;24.70;73.20;;;;;;5053176;28;20036;-34
2023/08/24 10:27:47;;;;;;;10.13;9.23;;;24.70;72.40;;;;;;5054922;28;20715;-34
2023/08/24 10:30:14;;;;;;;10.20;9.30;;;24.70;73.20;;;;;;5033898;28;20037;-34
2023/08/24 10:32:43;;;;;;;10.40;9.50;;;24.60;72.30;;;;;;5042993;28;20033;-34
2023/08/24 10:35:10;;;;;;;10.30;9.43;;;24.70;72.30;;;;;;5054738;28;20084;-34
2023/08/24 10:37:36;;;;;;;10.57;9.57;;;24.70;72.30;;;;;;5041566;28;20636;-34
2023/08/24 10:40:03;;;;;;;10.23;9.32;;;24.70;72.30;;;;;;5056756;28;20282;-35
2023/08/24 10:42:46;;;;;;;9.43;8.63;;;24.60;72.30;;;;;;5055685;28;20400;-34
2023/08/24 10:45:14;;;;;;;10.02;9.18;;;24.70;72.30;;;;;;5057699;28;20033;-34
2023/08/24 10:47:46;;;;;;;10.20;9.30;;;24.60;72.40;;;;;;5044749;28;20075;-34
2023/08/24 10:50:13;;;;;;;9.95;9.10;;;24.70;72.40;;;;;;5056545;28;20025;-34
2023/08/24 10:52:40;;;;;;;10.25;9.35;;;24.60;72.40;;;;;;5043817;28;20108;-34
2023/08/24 10:55:23;;;;;;;10.23;9.32;;;24.60;72.50;;;;;;5045284;28;20050;-34
2023/08/24 10:57:57;;;;;;;9.65;8.82;;;24.60;72.50;;;;;;5062493;28;20029;-35
2023/08/24 11:00:28;;;;;;;9.73;8.93;;;24.60;72.60;;;;;;5062535;28;20067;-35
2023/08/24 11:02:54;;;;;;;9.90;9.10;;;24.60;72.50;;;;;;5055522;28;20021;-34
2023/08/24 11:05:30;;;;;;;9.43;8.63;;;24.60;72.50;;;;;;5062907;28;20485;-34
2023/08/24 11:07:56;;;;;;;10.05;9.18;;;24.60;72.60;;;;;;5055891;28;20088;-34
2023/08/24 11:10:24;;;;;;;10.07;9.18;;;24.60;72.50;;;;;;5056402;28;20036;-34
2023/08/24 11:13:06;;;;;;;10.10;9.20;;;24.60;72.60;;;;;;5061641;28;20065;-34
2023/08/24 11:15:33;;;;;;;10.02;9.15;;;24.60;72.50;;;;;;5056240;28;20048;-34
2023/08/24 11:18:16;;;;;;;9.70;8.90;;;24.60;72.60;;;;;;5048432;28;20063;-35
2023/08/24 11:20:46;;;;;;;9.43;8.63;;;24.60;72.60;;;;;;5030745;28;20577;-34
2023/08/24 11:23:13;;;;;;;9.50;8.63;;;24.60;72.60;;;;;;5050881;28;20056;-36
2023/08/24 11:25:39;;;;;;;9.95;9.05;;;24.60;72.70;;;;;;5053676;28;20045;-36
2023/08/24 11:28:05;;;;;;;9.33;8.53;;;24.60;72.70;;;;;;5053987;28;20026;-35
2023/08/24 11:30:35;;;;;;;10.13;9.23;;;24.60;72.80;;;;;;5049296;28;20285;-35
2023/08/24 11:33:02;;;;;;;9.00;8.30;;;24.60;72.80;;;;;;5038223;28;20025;-35
2023/08/24 11:35:28;;;;;;;9.13;8.32;;;24.60;72.90;;;;;;5052052;28;20065;-34
2023/08/24 11:37:57;;;;;;;9.15;8.35;;;24.60;72.80;;;;;;5048429;28;20093;-34
2023/08/24 11:40:26;;;;;;;9.68;8.88;;;24.50;72.90;;;;;;5050477;28;20454;-34
2023/08/24 11:42:56;;;;;;;9.35;8.55;;;24.60;72.80;;;;;;5050884;28;20036;-34
2023/08/24 11:45:22;;;;;;;9.52;8.65;;;24.60;72.80;;;;;;5050246;28;20039;-35
2023/08/24 11:47:50;;;;;;;8.93;8.20;;;24.50;72.70;;;;;;5055509;28;20025;-34
2023/08/24 11:50:17;;;;;;;9.43;8.63;;;24.60;72.80;;;;;;5062007;28;20029;-34
2023/08/24 11:52:43;;;;;;;;;;;24.50;72.70;;;;;;5055110;28;20036;-34
2023/08/24 11:55:09;;;;;;;9.52;8.73;;;24.50;72.80;;;;;;5062692;28;19928;-35
2023/08/24 11:57:38;;;;;;;8.75;7.95;;;24.50;72.70;;;;;;5044039;28;20847;-34
2023/08/24 12:00:07;;;;;;;9.02;8.23;;;24.50;72.80;;;;;;5053926;28;20068;-34
2023/08/24 12:02:33;;;;;;;9.60;8.80;;;24.50;72.80;;;;;;5048398;28;20036;-34
2023/08/24 12:04:59;;;;;;;9.35;8.55;;;24.50;72.80;;;;;;5036489;28;20055;-34
2023/08/24 12:07:28;;;;;;;8.73;8.02;;;24.50;72.90;;;;;;5055855;28;20579;-34
2023/08/24 12:09:55;;;;;;;9.15;8.35;;;24.50;73.00;;;;;;5058841;28;20033;-35
2023/08/24 12:12:23;;;;;;;9.70;8.88;;;24.50;73.00;;;;;;5055370;28;20081;-34
2023/08/24 12:14:49;;;;;;;10.05;9.25;;;24.50;73.00;;;;;;5062019;28;20791;-34
2023/08/24 12:17:16;;;;;;;9.55;8.75;;;24.50;73.10;;;;;;5047403;28;20105;-34
2023/08/24 12:19:46;;;;;;;9.43;8.63;;;24.50;73.00;;;;;;5052714;28;20029;-35
2023/08/24 12:22:16;;;;;;;9.55;8.75;;;24.50;73.00;;;;;;5044764;28;20644;-35
2023/08/24 12:24:48;;;;;;;9.80;8.90;;;24.50;73.00;;;;;;5051448;28;20846;-34
2023/08/24 12:27:20;;;;;;;9.30;8.50;;;24.50;73.00;;;;;;5047488;28;20140;-34
2023/08/24 12:29:47;;;;;;;9.68;8.77;;;24.50;72.90;;;;;;5051659;28;21655;-35
2023/08/24 12:32:15;;;;;;;10.02;9.23;;;24.50;72.90;;;;;;5047369;28;20031;-34
2023/08/24 12:34:42;;;;;;;9.52;8.73;;;24.50;72.90;;;;;;5050394;28;20102;-34
2023/08/24 12:37:09;;;;;;;9.75;8.85;;;24.50;72.90;;;;;;5033923;28;20035;-35